Time;durP1;ratioP1;P1;durP2;ratioP2;P2;SDS_P1;SDS_P2;PMS_P1;PMS_P2;Temp;Humidity;BMP_temperature;BMP_pressure;BME280_temperature;BME280_humidity;BME280_pressure;Samples;Min_cycle;Max_cycle;Signal;HPM_P1;HPM_P2
2023/03/26 00:01:23;;;;;;;7.20;1.67;;;11.60;72.00;;;;;;5012617;28;20481;-85
2023/03/26 00:03:53;;;;;;;6.67;1.80;;;11.60;72.00;;;;;;5017196;28;20487;-84
2023/03/26 00:06:24;;;;;;;6.63;2.00;;;11.70;72.00;;;;;;5015557;28;20500;-86
2023/03/26 00:08:53;;;;;;;8.13;1.80;;;11.60;72.00;;;;;;5009947;28;20559;-86
2023/03/26 00:11:29;;;;;;;12.60;2.60;;;11.60;72.00;;;;;;4999330;28;21002;-84
2023/03/26 00:13:57;;;;;;;7.63;1.80;;;11.70;72.10;;;;;;5003817;28;20605;-86
2023/03/26 00:16:27;;;;;;;9.77;1.47;;;11.60;72.10;;;;;;5006779;28;20556;-86
2023/03/26 00:18:56;;;;;;;8.20;2.07;;;11.60;72.10;;;;;;5000206;28;20457;-85
2023/03/26 00:21:27;;;;;;;7.67;2.37;;;11.60;72.10;;;;;;5015279;28;20474;-85
2023/03/26 00:23:57;;;;;;;9.53;1.60;;;11.70;72.10;;;;;;5014867;28;20458;-86
2023/03/26 00:26:25;;;;;;;13.03;2.03;;;11.70;72.00;;;;;;5016643;28;20540;-85
2023/03/26 00:28:53;;;;;;;8.40;1.90;;;11.70;72.10;;;;;;5015384;28;20445;-86
2023/03/26 00:31:22;;;;;;;8.03;2.43;;;11.70;72.00;;;;;;5014998;28;20554;-86
2023/03/26 00:33:54;;;;;;;10.50;1.90;;;11.70;71.90;;;;;;5020218;28;20493;-85
2023/03/26 00:36:24;;;;;;;6.87;1.70;;;11.70;72.00;;;;;;5013664;28;20552;-86
2023/03/26 00:38:55;;;;;;;9.93;1.77;;;11.70;72.00;;;;;;5012759;28;20937;-85
2023/03/26 00:41:25;;;;;;;6.77;1.87;;;11.70;72.00;;;;;;5013754;28;20476;-84
2023/03/26 00:43:55;;;;;;;8.87;2.17;;;11.70;72.10;;;;;;5012296;28;20459;-84
2023/03/26 00:46:24;;;;;;;11.33;1.97;;;11.70;72.00;;;;;;5012558;28;20473;-85
2023/03/26 00:48:53;;;;;;;11.90;1.93;;;11.70;72.00;;;;;;5016409;28;20446;-84
2023/03/26 00:51:22;;;;;;;10.63;2.10;;;11.70;72.00;;;;;;5001991;28;20459;-86
2023/03/26 00:53:50;;;;;;;10.40;3.00;;;11.70;72.10;;;;;;5013886;28;20489;-85
2023/03/26 00:56:20;;;;;;;10.70;2.00;;;11.70;72.00;;;;;;4999992;28;20472;-85
2023/03/26 00:58:49;;;;;;;15.40;2.20;;;11.70;72.00;;;;;;5018013;28;20718;-84
2023/03/26 01:01:20;;;;;;;7.73;2.13;;;11.70;72.10;;;;;;5006396;28;20479;-84
2023/03/26 01:03:49;;;;;;;8.27;2.07;;;11.60;72.00;;;;;;5022626;28;20458;-85
2023/03/26 01:06:37;;;;;;;10.40;2.07;;;11.60;72.10;;;;;;5016702;28;20482;-85
2023/03/26 01:09:14;;;;;;;11.00;2.10;;;11.60;72.00;;;;;;5016985;28;20566;-84
2023/03/26 01:11:46;;;;;;;13.93;2.10;;;11.50;72.00;;;;;;5015100;28;20516;-85
2023/03/26 01:14:18;;;;;;;11.53;2.37;;;11.50;72.00;;;;;;5017831;28;20485;-85
2023/03/26 01:16:51;;;;;;;11.40;2.10;;;11.50;72.20;;;;;;5015678;28;20474;-85
2023/03/26 01:19:25;;;;;;;10.93;2.57;;;11.50;72.20;;;;;;5016091;28;20466;-85
2023/03/26 01:21:53;;;;;;;7.60;1.97;;;11.50;72.20;;;;;;5014948;28;20459;-86
2023/03/26 01:24:23;;;;;;;9.83;2.00;;;11.50;72.10;;;;;;5018145;28;20468;-85
2023/03/26 01:27:23;;;;;;;10.70;2.20;;;11.50;72.10;;;;;;5016226;28;20479;-84
2023/03/26 01:29:54;;;;;;;10.80;2.20;;;11.50;72.00;;;;;;5008478;28;20446;-84
2023/03/26 01:32:34;;;;;;;7.47;1.50;;;11.50;72.20;;;;;;5016325;28;20746;-84
2023/03/26 01:35:21;;;;;;;10.23;2.40;;;11.40;72.10;;;;;;5009943;28;20473;-85
2023/03/26 01:38:00;;;;;;;13.77;2.30;;;11.40;72.10;;;;;;5005583;28;20457;-85
2023/03/26 01:40:37;;;;;;;10.00;2.10;;;11.40;72.00;;;;;;5013068;28;20623;-85
2023/03/26 01:43:11;;;;;;;12.00;2.10;;;11.30;72.00;;;;;;5009099;28;21238;-85
2023/03/26 01:45:44;;;;;;;6.63;1.70;;;11.30;72.00;;;;;;5016368;28;20456;-85
2023/03/26 01:48:19;;;;;;;9.40;1.73;;;11.30;72.10;;;;;;5012570;28;21336;-84
2023/03/26 01:50:52;;;;;;;11.17;1.73;;;11.20;72.10;;;;;;5015293;28;20806;-85
2023/03/26 01:53:20;;;;;;;10.67;1.90;;;11.20;72.10;;;;;;5013802;28;20518;-84
2023/03/26 01:56:00;;;;;;;8.70;2.10;;;11.20;72.20;;;;;;5014120;28;20624;-85
2023/03/26 01:58:36;;;;;;;10.97;2.33;;;11.20;72.20;;;;;;5011350;28;20996;-84
2023/03/26 02:01:18;;;;;;;18.90;3.60;;;11.10;72.20;;;;;;5014986;28;20495;-83
2023/03/26 02:03:53;;;;;;;11.47;2.63;;;11.00;72.20;;;;;;5012393;28;20614;-84
2023/03/26 02:06:29;;;;;;;10.43;2.70;;;11.00;72.30;;;;;;4996713;28;21051;-85
2023/03/26 02:09:03;;;;;;;10.27;2.90;;;11.00;72.30;;;;;;5008482;28;20857;-86
2023/03/26 02:11:32;;;;;;;10.93;2.10;;;11.00;72.50;;;;;;5010265;28;20506;-84
2023/03/26 02:14:04;;;;;;;7.70;2.30;;;11.00;72.50;;;;;;5014911;28;20483;-86
2023/03/26 02:16:33;;;;;;;14.00;2.30;;;11.00;72.50;;;;;;4962004;28;1306395;-85
2023/03/26 02:19:01;;;;;;;10.33;2.50;;;10.90;72.30;;;;;;5018163;28;20353;-85
2023/03/26 02:21:32;;;;;;;9.30;1.90;;;10.90;72.50;;;;;;5004453;28;20453;-84
2023/03/26 02:24:02;;;;;;;9.20;2.00;;;10.90;72.60;;;;;;5008743;28;20527;-85
2023/03/26 02:26:36;;;;;;;8.93;2.10;;;10.90;72.60;;;;;;5011270;28;20614;-85
2023/03/26 02:29:12;;;;;;;10.13;2.60;;;10.90;72.60;;;;;;5012111;28;20954;-84
2023/03/26 02:31:42;;;;;;;14.40;2.27;;;10.80;72.70;;;;;;5017194;28;20528;-84
2023/03/26 02:34:10;;;;;;;9.03;2.73;;;10.80;72.80;;;;;;5017496;28;20540;-85
2023/03/26 02:36:41;;;;;;;11.93;3.23;;;10.80;72.70;;;;;;4996233;28;20462;-84
2023/03/26 02:39:13;;;;;;;9.33;2.10;;;10.80;72.80;;;;;;4997200;28;20468;-84
2023/03/26 02:41:45;;;;;;;7.80;2.63;;;10.80;72.90;;;;;;5009166;28;20592;-86
2023/03/26 02:44:13;;;;;;;10.37;2.30;;;10.80;72.90;;;;;;4994133;28;20470;-85
2023/03/26 02:46:59;;;;;;;9.57;2.70;;;10.80;72.90;;;;;;5011537;28;20484;-84
2023/03/26 02:49:46;;;;;;;7.83;1.80;;;10.80;73.00;;;;;;5014990;28;20464;-86
2023/03/26 02:52:22;;;;;;;8.67;2.27;;;10.80;73.00;;;;;;5012839;28;20464;-85
2023/03/26 02:54:52;;;;;;;18.20;2.80;;;10.80;72.90;;;;;;5015289;28;20464;-84
2023/03/26 02:57:25;;;;;;;10.13;2.73;;;10.80;73.00;;;;;;5013683;28;20454;-85
2023/03/26 03:00:16;;;;;;;8.90;2.43;;;10.70;73.00;;;;;;5015925;28;20457;-85
2023/03/26 03:03:08;;;;;;;12.07;2.20;;;10.70;73.10;;;;;;5012967;28;20476;-84
2023/03/26 03:06:02;;;;;;;11.43;2.70;;;10.70;73.10;;;;;;5008862;28;20860;-85
2023/03/26 03:08:36;;;;;;;13.67;2.17;;;10.70;73.10;;;;;;5006729;28;20502;-85
2023/03/26 03:11:09;;;;;;;12.33;2.10;;;10.70;73.10;;;;;;5007246;28;20456;-85
2023/03/26 03:13:47;;;;;;;9.80;2.90;;;10.70;73.20;;;;;;5011353;28;20469;-84
2023/03/26 03:16:19;;;;;;;7.40;2.00;;;10.70;73.20;;;;;;5016564;28;20500;-84
2023/03/26 03:18:57;;;;;;;13.90;2.90;;;10.70;73.30;;;;;;5014131;28;20460;-83
2023/03/26 03:21:39;;;;;;;9.50;2.53;;;10.70;73.20;;;;;;5007939;28;20471;-85
2023/03/26 03:24:08;;;;;;;9.90;2.40;;;10.60;73.20;;;;;;5017865;28;20464;-84
2023/03/26 03:26:44;;;;;;;17.13;2.60;;;10.60;73.30;;;;;;5010349;28;20469;-84
2023/03/26 03:29:45;;;;;;;13.07;2.33;;;10.60;73.30;;;;;;5012778;28;21129;-84
2023/03/26 03:32:45;;;;;;;8.70;2.50;;;10.60;73.30;;;;;;4969717;28;20487;-84
2023/03/26 03:35:18;;;;;;;11.43;3.27;;;10.50;73.20;;;;;;5015968;28;20448;-86
2023/03/26 03:37:50;;;;;;;12.87;3.13;;;10.50;73.30;;;;;;5009270;28;20464;-83
2023/03/26 03:40:18;;;;;;;8.70;2.53;;;10.50;73.40;;;;;;5015180;28;20456;-84
2023/03/26 03:42:48;;;;;;;13.00;2.60;;;10.50;73.40;;;;;;5009297;28;20852;-83
2023/03/26 03:45:27;;;;;;;5.83;1.87;;;10.60;73.50;;;;;;5012307;28;20573;-81
2023/03/26 03:48:18;;;;;;;11.20;2.27;;;10.60;73.40;;;;;;5010658;28;20484;-81
2023/03/26 03:50:47;;;;;;;9.30;3.10;;;10.60;73.50;;;;;;5008776;28;21182;-81
2023/03/26 03:53:27;;;;;;;16.70;3.00;;;10.60;73.50;;;;;;5005165;28;20452;-81
2023/03/26 03:56:08;;;;;;;11.97;2.43;;;10.60;73.50;;;;;;4998264;28;20457;-82
2023/03/26 03:58:57;;;;;;;12.20;2.53;;;10.60;73.50;;;;;;5010595;28;20435;-86
2023/03/26 04:01:32;;;;;;;18.30;2.80;;;10.50;73.70;;;;;;5016357;28;20479;-85
2023/03/26 04:04:15;;;;;;;15.43;2.60;;;10.60;73.70;;;;;;5012152;28;20955;-87
2023/03/26 04:07:07;;;;;;;9.30;2.40;;;10.60;73.70;;;;;;5012701;28;20460;-86
2023/03/26 04:10:14;;;;;;;11.27;2.80;;;10.60;73.70;;;;;;4948654;29;20848;-84
2023/03/26 04:13:01;;;;;;;12.90;3.13;;;10.60;73.70;;;;;;5007291;28;20841;-84
2023/03/26 04:15:53;;;;;;;20.40;3.40;;;10.60;73.60;;;;;;5008804;28;20472;-85
2023/03/26 04:18:25;;;;;;;10.73;3.03;;;10.60;73.70;;;;;;5015051;28;20731;-85
2023/03/26 04:21:04;;;;;;;8.07;2.10;;;10.60;73.70;;;;;;5011002;28;20837;-85
2023/03/26 04:23:33;;;;;;;11.77;2.40;;;10.60;73.70;;;;;;5013859;28;20460;-86
2023/03/26 04:26:18;;;;;;;8.27;2.33;;;10.60;73.60;;;;;;5008672;28;20470;-85
2023/03/26 04:29:10;;;;;;;15.40;3.20;;;10.60;73.70;;;;;;5014751;28;20500;-85
2023/03/26 04:31:45;;;;;;;8.67;2.03;;;10.50;73.70;;;;;;5009066;28;20522;-84
2023/03/26 04:34:22;;;;;;;14.07;3.50;;;10.50;73.80;;;;;;4995361;28;20501;-85
2023/03/26 04:37:19;;;;;;;11.37;2.40;;;10.60;73.80;;;;;;5012137;28;20460;-86
2023/03/26 04:40:00;;;;;;;10.20;3.17;;;10.60;73.80;;;;;;5009225;28;20456;-84
2023/03/26 04:42:40;;;;;;;14.07;2.80;;;10.50;73.70;;;;;;4986788;28;20465;-83
2023/03/26 04:45:21;;;;;;;11.20;2.40;;;10.50;73.80;;;;;;5009198;28;20464;-87
2023/03/26 04:47:59;;;;;;;13.40;3.47;;;10.50;73.80;;;;;;5014862;28;20527;-85
2023/03/26 04:50:29;;;;;;;10.00;2.60;;;10.50;74.00;;;;;;4994775;28;21375;-85
2023/03/26 04:52:58;;;;;;;9.23;2.37;;;10.50;73.70;;;;;;5017777;28;20535;-83
2023/03/26 04:56:09;;;;;;;11.30;3.90;;;10.40;73.60;;;;;;5018126;28;20468;-85
2023/03/26 04:59:06;;;;;;;9.77;3.27;;;10.20;73.70;;;;;;5018310;28;20984;-84
2023/03/26 05:01:39;;;;;;;8.97;2.87;;;10.10;73.90;;;;;;5012107;28;20528;-86
2023/03/26 05:04:08;;;;;;;12.10;3.60;;;10.10;74.10;;;;;;5014307;28;20514;-84
2023/03/26 05:06:38;;;;;;;14.47;2.90;;;10.10;74.30;;;;;;5017584;28;20452;-86
2023/03/26 05:09:15;;;;;;;15.93;2.47;;;10.10;74.40;;;;;;5017780;28;21018;-85
2023/03/26 05:12:10;;;;;;;11.70;2.60;;;10.10;74.40;;;;;;5017931;28;20969;-84
2023/03/26 05:14:53;;;;;;;10.33;3.00;;;10.10;74.40;;;;;;5011252;28;20507;-85
2023/03/26 05:17:40;;;;;;;13.30;2.97;;;10.20;74.40;;;;;;5011711;28;20510;-84
2023/03/26 05:20:20;;;;;;;5.30;2.10;;;10.20;74.50;;;;;;5023074;28;20927;-85
2023/03/26 05:22:50;;;;;;;9.00;2.50;;;10.20;74.40;;;;;;5004872;28;20504;-83
2023/03/26 05:25:24;;;;;;;10.30;2.80;;;10.20;74.40;;;;;;5000993;28;20452;-84
2023/03/26 05:27:53;;;;;;;9.27;2.40;;;10.20;74.40;;;;;;5014369;28;20484;-87
2023/03/26 05:30:25;;;;;;;12.60;2.97;;;10.20;74.50;;;;;;4998616;28;20465;-85
2023/03/26 05:33:03;;;;;;;10.37;2.73;;;10.20;74.50;;;;;;5019591;28;20489;-85
2023/03/26 05:35:42;;;;;;;6.73;2.33;;;10.20;74.60;;;;;;5018968;28;20462;-83
2023/03/26 05:38:11;;;;;;;9.70;2.67;;;10.20;74.60;;;;;;5015987;28;20472;-86
2023/03/26 05:40:39;;;;;;;10.57;2.10;;;10.20;74.70;;;;;;5013871;28;20464;-84
2023/03/26 05:43:09;;;;;;;15.00;3.57;;;10.30;74.60;;;;;;5011897;28;20822;-87
2023/03/26 05:45:41;;;;;;;8.70;2.70;;;10.30;74.70;;;;;;4996875;28;20472;-86
2023/03/26 05:48:17;;;;;;;8.63;2.50;;;10.30;74.70;;;;;;4998757;28;20564;-86
2023/03/26 05:50:47;;;;;;;14.33;2.73;;;10.30;74.80;;;;;;5015291;28;20515;-83
2023/03/26 05:53:18;;;;;;;7.10;2.40;;;10.40;74.80;;;;;;5001948;28;20847;-82
2023/03/26 05:56:05;;;;;;;10.83;2.40;;;10.40;74.80;;;;;;5013583;28;20957;-84
2023/03/26 05:58:56;;;;;;;12.13;3.17;;;10.40;74.80;;;;;;5012849;28;20515;-83
2023/03/26 06:01:43;;;;;;;14.43;3.33;;;10.40;74.90;;;;;;5013769;28;20476;-83
2023/03/26 06:04:30;;;;;;;18.93;7.83;;;10.50;75.00;;;;;;5012098;28;20466;-85
2023/03/26 06:07:25;;;;;;;21.93;8.00;;;10.50;74.80;;;;;;5011017;28;20972;-85
2023/03/26 06:10:10;;;;;;;115.73;72.50;;;10.50;74.90;;;;;;5007980;28;20488;-84
2023/03/26 06:12:46;;;;;;;18.50;6.50;;;10.50;75.00;;;;;;5008726;28;20464;-85
2023/03/26 06:15:14;;;;;;;18.97;5.73;;;10.50;74.80;;;;;;5011493;28;21000;-83
2023/03/26 06:17:59;;;;;;;11.87;4.83;;;10.50;74.90;;;;;;5020413;28;20467;-84
2023/03/26 06:21:00;;;;;;;16.17;6.00;;;10.50;75.00;;;;;;5011902;28;20496;-84
2023/03/26 06:23:41;;;;;;;11.90;5.03;;;10.50;75.00;;;;;;5016580;28;20465;-85
2023/03/26 06:26:30;;;;;;;17.83;5.00;;;10.50;75.00;;;;;;5001391;28;20464;-84
2023/03/26 06:29:17;;;;;;;17.23;4.80;;;10.50;75.10;;;;;;5014381;28;20755;-86
2023/03/26 06:32:01;;;;;;;13.53;2.70;;;10.50;75.30;;;;;;5008477;28;21001;-83
2023/03/26 06:34:50;;;;;;;14.27;2.70;;;10.60;75.30;;;;;;5010988;28;20475;-83
2023/03/26 06:37:18;;;;;;;10.13;2.40;;;10.60;75.20;;;;;;5012846;28;20449;-83
2023/03/26 06:39:47;;;;;;;9.57;2.37;;;10.60;75.20;;;;;;5012869;28;20464;-82
2023/03/26 06:42:23;;;;;;;8.90;2.27;;;10.70;75.20;;;;;;5017705;28;20461;-83
2023/03/26 06:45:33;;;;;;;14.20;3.40;;;10.70;75.20;;;;;;5011402;28;20955;-84
2023/03/26 06:48:19;;;;;;;12.30;3.00;;;10.70;75.40;;;;;;5015218;28;20451;-83
2023/03/26 06:51:15;;;;;;;8.50;2.50;;;10.70;75.40;;;;;;5014252;28;20541;-84
2023/03/26 06:54:01;;;;;;;10.67;2.60;;;10.80;75.40;;;;;;5013259;28;20455;-84
2023/03/26 06:56:50;;;;;;;10.67;2.30;;;10.80;75.30;;;;;;5014194;28;20458;-84
2023/03/26 06:59:38;;;;;;;8.83;2.23;;;10.90;75.20;;;;;;5012614;28;20566;-83
2023/03/26 07:02:25;;;;;;;8.03;1.80;;;10.90;75.20;;;;;;5015337;28;20522;-83
2023/03/26 07:05:12;;;;;;;4.47;1.67;;;10.90;75.20;;;;;;5017306;28;20540;-84
2023/03/26 07:07:59;;;;;;;5.80;2.17;;;10.90;75.10;;;;;;5016647;28;20470;-83
2023/03/26 07:10:46;;;;;;;9.10;2.17;;;10.90;75.20;;;;;;5017877;28;21025;-84
2023/03/26 07:13:26;;;;;;;10.70;2.50;;;10.90;75.20;;;;;;5013876;28;20459;-83
2023/03/26 07:16:16;;;;;;;8.83;2.47;;;10.90;75.20;;;;;;5014327;28;20500;-83
2023/03/26 07:19:02;;;;;;;7.43;2.47;;;10.90;75.10;;;;;;5016520;28;20476;-85
2023/03/26 07:21:35;;;;;;;6.80;2.23;;;10.90;75.20;;;;;;5014494;28;20478;-85
2023/03/26 07:24:12;;;;;;;8.97;2.40;;;10.90;75.20;;;;;;5014105;28;20495;-85
2023/03/26 07:27:06;;;;;;;11.13;3.07;;;10.90;75.20;;;;;;5001563;28;20503;-84
2023/03/26 07:29:46;;;;;;;10.70;4.37;;;11.00;75.20;;;;;;4995750;28;20468;-81
2023/03/26 07:32:42;;;;;;;13.33;5.37;;;11.00;75.20;;;;;;5013583;28;20476;-81
2023/03/26 07:35:42;;;;;;;15.17;3.40;;;11.10;75.10;;;;;;5008613;28;20460;-80
2023/03/26 07:38:43;;;;;;;12.93;4.00;;;11.10;75.10;;;;;;5013521;28;20475;-82
2023/03/26 07:41:38;;;;;;;7.67;2.67;;;11.00;75.00;;;;;;5013860;28;20535;-81
2023/03/26 07:44:46;;;;;;;11.07;3.63;;;11.00;75.10;;;;;;5013898;28;20452;-82
2023/03/26 07:47:36;;;;;;;17.03;5.47;;;10.90;75.10;;;;;;5014705;28;20475;-83
2023/03/26 07:50:19;;;;;;;11.47;4.67;;;10.90;75.20;;;;;;5016306;28;20516;-84
2023/03/26 07:53:06;;;;;;;13.27;4.90;;;10.90;75.30;;;;;;5012678;28;21108;-81
2023/03/26 07:56:02;;;;;;;11.03;4.03;;;10.90;75.40;;;;;;5010130;28;20855;-79
2023/03/26 07:58:51;;;;;;;11.50;3.93;;;10.90;75.40;;;;;;5014508;28;20468;-78
2023/03/26 08:01:57;;;;;;;14.37;3.30;;;10.90;75.50;;;;;;5008223;28;20500;-84
2023/03/26 08:05:02;;;;;;;11.70;2.77;;;11.00;75.70;;;;;;5014555;28;20844;-83
2023/03/26 08:08:09;;;;;;;7.07;2.60;;;11.10;75.80;;;;;;5011924;28;20445;-82
2023/03/26 08:10:57;;;;;;;9.30;2.77;;;11.10;75.70;;;;;;5020373;28;20509;-82
2023/03/26 08:13:34;;;;;;;9.00;2.77;;;11.10;75.60;;;;;;5013048;28;21172;-82
2023/03/26 08:16:11;;;;;;;6.37;3.10;;;11.10;75.60;;;;;;5009731;28;20471;-82
2023/03/26 08:18:48;;;;;;;10.23;4.00;;;11.10;75.50;;;;;;4991516;28;20583;-82
2023/03/26 08:21:21;;;;;;;8.70;2.40;;;11.10;75.60;;;;;;5013006;28;20461;-82
2023/03/26 08:24:00;;;;;;;9.63;3.53;;;11.00;75.60;;;;;;5012318;28;20472;-81
2023/03/26 08:26:35;;;;;;;11.47;4.63;;;11.00;75.80;;;;;;5018508;28;20971;-82
2023/03/26 08:29:16;;;;;;;19.93;4.70;;;11.00;75.80;;;;;;5001204;28;20461;-82
2023/03/26 08:31:46;;;;;;;9.27;3.20;;;11.00;76.00;;;;;;5016740;28;20551;-83
2023/03/26 08:34:14;;;;;;;10.80;3.77;;;11.00;76.00;;;;;;5017742;28;20460;-82
2023/03/26 08:36:43;;;;;;;11.17;4.23;;;11.00;76.10;;;;;;5010768;28;20454;-83
2023/03/26 08:39:13;;;;;;;10.43;3.63;;;11.00;76.30;;;;;;5014258;28;20607;-82
2023/03/26 08:42:11;;;;;;;14.03;3.30;;;11.10;76.30;;;;;;5013025;28;20464;-83
2023/03/26 08:45:09;;;;;;;14.80;3.83;;;11.10;76.40;;;;;;5017191;28;20460;-82
2023/03/26 08:48:16;;;;;;;11.70;2.70;;;11.00;76.40;;;;;;5009700;28;20456;-83
2023/03/26 08:51:12;;;;;;;10.37;4.90;;;11.00;76.50;;;;;;5014471;28;20484;-81
2023/03/26 08:54:14;;;;;;;16.93;7.30;;;10.90;76.50;;;;;;5015223;28;20987;-84
2023/03/26 08:56:52;;;;;;;7.93;3.40;;;10.80;76.70;;;;;;5011326;28;20464;-83
2023/03/26 08:59:52;;;;;;;13.30;4.27;;;10.80;76.80;;;;;;5012302;28;20462;-84
2023/03/26 09:02:47;;;;;;;10.37;3.63;;;10.70;76.90;;;;;;5007201;28;21012;-83
2023/03/26 09:05:44;;;;;;;15.93;3.73;;;10.70;77.10;;;;;;5011668;28;20470;-83
2023/03/26 09:08:50;;;;;;;14.70;4.43;;;10.70;77.40;;;;;;5004025;28;20595;-83
2023/03/26 09:12:01;;;;;;;12.03;3.03;;;10.70;77.50;;;;;;5017419;28;20478;-83
2023/03/26 09:15:15;;;;;;;10.40;4.27;;;10.70;77.70;;;;;;4981780;28;20526;-83
2023/03/26 09:18:28;;;;;;;10.80;3.00;;;10.70;77.80;;;;;;4977791;28;20474;-82
2023/03/26 09:21:28;;;;;;;10.47;2.83;;;10.70;77.80;;;;;;5016098;28;20453;-86
2023/03/26 09:24:30;;;;;;;12.07;4.53;;;10.70;77.90;;;;;;5010141;28;20574;-82
2023/03/26 09:27:13;;;;;;;12.60;4.77;;;10.70;78.00;;;;;;5016455;28;20467;-83
2023/03/26 09:30:30;;;;;;;11.23;3.97;;;10.80;78.10;;;;;;5014985;28;20468;-86
2023/03/26 09:33:33;;;;;;;9.53;3.50;;;10.80;78.10;;;;;;4999479;28;20555;-85
2023/03/26 09:36:21;;;;;;;9.83;3.10;;;10.90;78.10;;;;;;4979585;28;20460;-85
2023/03/26 09:38:53;;;;;;;10.80;3.50;;;10.90;78.10;;;;;;4989442;28;20953;-82
2023/03/26 09:41:38;;;;;;;8.27;3.47;;;11.00;78.10;;;;;;4996330;28;20536;-81
2023/03/26 09:44:35;;;;;;;12.13;4.47;;;11.00;78.20;;;;;;4996932;28;20510;-83
2023/03/26 09:47:33;;;;;;;12.13;5.00;;;11.10;78.10;;;;;;4942202;28;20469;-81
2023/03/26 09:50:21;;;;;;;10.87;4.10;;;11.10;78.20;;;;;;4976158;28;20602;-84
2023/03/26 09:53:08;;;;;;;15.90;8.13;;;11.10;78.10;;;;;;5001729;28;20454;-84
2023/03/26 09:55:56;;;;;;;13.20;5.97;;;11.10;78.10;;;;;;4984870;28;20518;-84
2023/03/26 09:58:58;;;;;;;12.50;5.50;;;11.20;78.10;;;;;;5006938;28;20450;-82
2023/03/26 10:01:36;;;;;;;7.90;2.77;;;11.20;78.20;;;;;;4991633;28;20489;-82
2023/03/26 10:04:46;;;;;;;9.90;2.63;;;11.30;78.30;;;;;;5004931;28;20459;-80
2023/03/26 10:07:41;;;;;;;13.93;4.00;;;11.30;78.40;;;;;;4978695;28;20461;-82
2023/03/26 10:10:22;;;;;;;17.60;3.70;;;11.40;78.30;;;;;;4994863;28;20487;-82
2023/03/26 10:12:54;;;;;;;7.00;2.63;;;11.40;78.40;;;;;;4992527;28;20730;-79
2023/03/26 10:15:56;;;;;;;5.87;2.50;;;11.40;78.40;;;;;;4992196;28;20499;-79
2023/03/26 10:18:38;;;;;;;5.33;2.30;;;11.50;78.60;;;;;;4993778;28;20470;-79
2023/03/26 10:21:16;;;;;;;7.93;2.30;;;11.60;78.70;;;;;;4990680;28;20525;-78
2023/03/26 10:24:01;;;;;;;9.50;2.73;;;11.60;78.60;;;;;;4996026;28;20470;-78
2023/03/26 10:26:48;;;;;;;7.60;1.50;;;11.60;78.60;;;;;;4993770;28;20490;-79
2023/03/26 10:30:08;;;;;;;6.43;2.03;;;11.60;78.70;;;;;;4997923;28;20776;-79
2023/03/26 10:32:45;;;;;;;7.43;1.73;;;11.70;78.70;;;;;;4986501;28;20504;-79
2023/03/26 10:35:37;;;;;;;5.57;1.67;;;11.70;78.70;;;;;;5003133;28;20778;-79
2023/03/26 10:38:16;;;;;;;7.73;1.77;;;11.80;78.80;;;;;;4984214;28;20624;-78
2023/03/26 10:40:54;;;;;;;8.43;1.67;;;11.90;78.70;;;;;;4992773;28;20526;-80
2023/03/26 10:43:49;;;;;;;6.40;1.83;;;12.00;78.60;;;;;;4998498;28;20915;-79
2023/03/26 10:47:07;;;;;;;5.50;1.90;;;12.00;78.60;;;;;;4994594;28;21130;-80
2023/03/26 10:50:01;;;;;;;7.67;1.67;;;12.10;78.50;;;;;;4988482;28;20476;-79
2023/03/26 10:52:34;;;;;;;7.27;1.60;;;12.10;78.10;;;;;;4994632;28;20464;-79
2023/03/26 10:55:15;;;;;;;8.20;1.67;;;12.10;78.00;;;;;;4990018;28;20524;-79
2023/03/26 10:57:49;;;;;;;5.77;1.70;;;12.10;78.30;;;;;;4991792;28;20523;-79
2023/03/26 11:00:24;;;;;;;7.80;2.37;;;12.10;78.20;;;;;;4995828;28;20813;-79
2023/03/26 11:03:11;;;;;;;7.43;2.23;;;12.10;78.00;;;;;;4989731;28;20505;-79
2023/03/26 11:05:51;;;;;;;6.90;2.07;;;12.20;78.20;;;;;;4989766;28;20467;-78
2023/03/26 11:08:25;;;;;;;8.00;2.30;;;12.20;77.90;;;;;;4982803;28;20490;-79
2023/03/26 11:11:09;;;;;;;5.90;2.13;;;12.20;77.90;;;;;;4991408;28;20723;-79
2023/03/26 11:13:49;;;;;;;7.70;3.17;;;12.30;77.50;;;;;;5014026;28;20548;-79
2023/03/26 11:16:25;;;;;;;8.73;2.70;;;12.30;77.70;;;;;;4995326;28;20472;-79
2023/03/26 11:18:59;;;;;;;7.73;2.50;;;12.20;77.90;;;;;;5005206;28;20468;-79
2023/03/26 11:21:33;;;;;;;8.10;3.30;;;12.20;77.70;;;;;;4989842;28;20461;-79
2023/03/26 11:24:33;;;;;;;9.40;2.20;;;12.20;77.70;;;;;;4980002;28;20468;-80
2023/03/26 11:27:11;;;;;;;8.20;2.80;;;12.20;77.70;;;;;;4994097;28;20468;-80
2023/03/26 11:29:51;;;;;;;8.83;2.13;;;12.20;78.00;;;;;;4994231;28;20501;-79
2023/03/26 11:32:22;;;;;;;5.77;2.67;;;12.20;78.40;;;;;;4992265;28;20487;-79
2023/03/26 11:35:00;;;;;;;7.13;2.27;;;12.30;78.40;;;;;;4983450;28;20548;-79
2023/03/26 11:37:33;;;;;;;6.87;2.63;;;12.40;78.40;;;;;;4986145;28;20480;-80
2023/03/26 11:40:05;;;;;;;6.70;2.57;;;12.50;78.40;;;;;;5006818;28;20469;-79
2023/03/26 11:42:36;;;;;;;7.73;2.20;;;12.60;78.30;;;;;;4971706;28;20873;-78
2023/03/26 11:45:07;;;;;;;5.37;2.00;;;12.70;78.20;;;;;;4992593;28;20464;-80
2023/03/26 11:47:43;;;;;;;4.90;1.37;;;12.70;77.70;;;;;;5009338;28;20463;-80
2023/03/26 11:50:18;;;;;;;7.53;1.67;;;12.70;77.60;;;;;;4993373;28;20946;-79
2023/03/26 11:52:46;;;;;;;6.00;1.50;;;12.80;77.60;;;;;;4996854;28;20475;-80
2023/03/26 11:55:15;;;;;;;6.73;2.00;;;12.80;77.60;;;;;;4994796;28;20505;-81
2023/03/26 11:57:50;;;;;;;6.90;1.93;;;12.80;77.40;;;;;;4974455;28;20502;-79
2023/03/26 12:00:21;;;;;;;6.03;2.17;;;12.80;77.20;;;;;;4994769;28;20463;-79
2023/03/26 12:02:55;;;;;;;11.00;2.03;;;12.80;77.40;;;;;;5017255;28;20947;-80
2023/03/26 12:05:35;;;;;;;5.73;1.73;;;12.80;77.30;;;;;;5004298;28;20615;-79
2023/03/26 12:08:17;;;;;;;4.20;1.57;;;12.90;77.10;;;;;;5019703;28;20469;-79
2023/03/26 12:10:59;;;;;;;8.37;2.20;;;12.90;77.10;;;;;;5013787;28;20474;-79
2023/03/26 12:13:35;;;;;;;7.53;2.00;;;12.90;77.00;;;;;;5014555;28;20442;-79
2023/03/26 12:16:10;;;;;;;6.80;2.07;;;12.90;77.00;;;;;;5005239;28;20483;-79
2023/03/26 12:18:42;;;;;;;4.80;1.73;;;13.00;77.00;;;;;;5013678;28;20557;-80
2023/03/26 12:21:13;;;;;;;5.00;1.90;;;13.00;77.00;;;;;;5021476;28;20481;-79
2023/03/26 12:23:55;;;;;;;9.50;2.20;;;13.00;77.00;;;;;;5020200;28;20570;-80
2023/03/26 12:26:38;;;;;;;6.23;1.50;;;13.10;76.90;;;;;;5022165;28;20463;-79
2023/03/26 12:29:13;;;;;;;5.40;1.30;;;13.00;77.00;;;;;;5019212;28;20459;-79
2023/03/26 12:31:46;;;;;;;7.73;1.67;;;13.10;77.10;;;;;;4986915;28;20523;-80
2023/03/26 12:34:16;;;;;;;6.77;1.77;;;13.10;77.00;;;;;;4982120;28;20462;-79
2023/03/26 12:36:50;;;;;;;8.20;2.00;;;13.10;77.00;;;;;;4996407;28;20465;-79
2023/03/26 12:39:37;;;;;;;7.57;1.90;;;13.20;76.90;;;;;;4997810;28;20472;-80
2023/03/26 12:42:28;;;;;;;5.13;1.83;;;13.20;76.90;;;;;;4994985;28;20634;-79
2023/03/26 12:45:22;;;;;;;5.10;1.73;;;13.20;76.90;;;;;;4994721;28;20663;-79
2023/03/26 12:47:51;;;;;;;5.13;1.73;;;13.30;76.70;;;;;;4993582;28;20478;-79
2023/03/26 12:50:40;;;;;;;7.17;1.80;;;13.30;76.40;;;;;;4993848;28;20462;-79
2023/03/26 12:53:51;;;;;;;10.33;2.30;;;13.30;76.40;;;;;;4993011;28;20492;-79
2023/03/26 12:56:26;;;;;;;7.40;1.70;;;13.30;76.60;;;;;;4976191;28;20515;-78
2023/03/26 12:59:32;;;;;;;4.90;1.43;;;13.40;76.60;;;;;;4994381;28;21086;-80
2023/03/26 13:02:20;;;;;;;4.33;1.27;;;13.40;76.60;;;;;;4999823;28;20854;-79
2023/03/26 13:05:10;;;;;;;4.13;1.43;;;13.40;76.70;;;;;;5013923;28;20548;-79
2023/03/26 13:07:57;;;;;;;5.83;1.50;;;13.50;76.30;;;;;;5020339;28;20459;-79
2023/03/26 13:10:48;;;;;;;5.40;1.30;;;13.50;76.20;;;;;;5019833;28;20457;-79
2023/03/26 13:13:44;;;;;;;7.93;1.53;;;13.50;75.70;;;;;;5019861;28;20480;-79
2023/03/26 13:16:21;;;;;;;5.13;1.20;;;13.40;75.60;;;;;;5012763;28;21187;-78
2023/03/26 13:18:55;;;;;;;4.73;1.10;;;13.50;75.70;;;;;;5012786;28;20470;-79
2023/03/26 13:21:34;;;;;;;4.60;1.00;;;13.50;75.40;;;;;;4994918;28;20468;-78
2023/03/26 13:24:19;;;;;;;3.27;0.80;;;13.50;75.10;;;;;;5015513;28;20457;-79
2023/03/26 13:27:00;;;;;;;5.73;1.10;;;13.40;74.80;;;;;;5017459;28;20466;-81
2023/03/26 13:29:36;;;;;;;3.53;1.10;;;13.30;75.00;;;;;;5014390;28;20492;-81
2023/03/26 13:32:14;;;;;;;4.10;1.10;;;13.20;75.00;;;;;;5019796;28;20534;-80
2023/03/26 13:35:00;;;;;;;4.60;1.10;;;13.10;75.00;;;;;;5013676;28;20491;-80
2023/03/26 13:37:46;;;;;;;4.40;1.03;;;13.00;75.40;;;;;;5016586;28;20471;-80
2023/03/26 13:40:24;;;;;;;5.23;1.47;;;12.90;75.70;;;;;;5013153;28;20523;-80
2023/03/26 13:43:26;;;;;;;4.60;1.10;;;12.90;76.10;;;;;;5005018;28;20455;-80
2023/03/26 13:46:01;;;;;;;5.33;1.00;;;12.90;76.10;;;;;;5016367;28;20537;-79
2023/03/26 13:48:33;;;;;;;3.83;0.90;;;12.90;76.10;;;;;;5007149;28;20471;-80
2023/03/26 13:51:09;;;;;;;4.07;0.90;;;12.90;76.20;;;;;;5020926;28;20462;-80
2023/03/26 13:53:43;;;;;;;4.40;1.07;;;13.00;76.20;;;;;;5021743;28;20507;-80
2023/03/26 13:56:15;;;;;;;3.10;0.70;;;13.00;76.30;;;;;;5021262;28;20467;-80